Bay, Arkansas
Current Conditions -  °F | °C
As of 5:53 AM on Friday 21 Nov 2014 (Local Time) from KJBR Reporting Station
Overcast Overcast  
Wind Chill: 36°   Ceiling: 3400
Heat Index: 42°   Visibility: 10mi
Dew Point: 31°   Wind: 10mph
Humidity: 65%   Direction: 60°ENE
Pressure: 30.31"   Gusts: NA
Location:  35.74°N, 90.56°W
Report Text: KJBR 211153Z AUTO 06009KT 10SM OVC034 06/M01 A3031 RMK AO2 SLP265 T00561006 10067 20056 51009
Loading
Personal Weather Stations






























Interactive Weather Map New forecast layout! Learn more

10-Day Weather Forecast

Advertisements
Track Severe Weather on mobile